Jasper — TCTL2 — position and weather

sailwx.info

Track history (hours):
 
Tides and Currents Weather Stations Pressure Air Temp Water Temp Dewpoint Dewpoint Depression Visibility Wind Speed Wind Dir Waves Ship Positions

Jasper

Last reported at 2017-Feb-22 19:33 UTC. Time now 2017-Feb-22 20:04 UTC.
Position N 44°44' E 037°48'.

Length 94 m; draft 3.8 m.

Type: Ship. MMSI: 271002689.

Date/timePositionNaut miles runAvg speedWind from/ knotsBaromVisibWave heightAir tempDewpointWater temp
2017-Feb-22 19:33N 44°44' E 037°48'0 0.0
2017-Feb-22 18:31N 44°44' E 037°48'0 0.0
2017-Feb-22 17:27N 44°44' E 037°48'0 0.0
2017-Feb-22 16:31N 44°44' E 037°48'0 0.0
2017-Feb-22 15:32N 44°44' E 037°48'0 0.0
2017-Feb-22 14:31N 44°44' E 037°48'0 0.0
2017-Feb-22 13:33N 44°44' E 037°48'0 0.0
2017-Feb-22 12:33N 44°44' E 037°48'0 0.0
2017-Feb-22 11:32N 44°44' E 037°48'0 0.0
2017-Feb-22 10:33N 44°44' E 037°48'0 0.0
2017-Feb-22 09:33N 44°44' E 037°48'0 0.0
2017-Feb-22 08:32N 44°44' E 037°48'0 0.0
2017-Feb-22 07:32N 44°44' E 037°48'0 0.0
2017-Feb-22 06:31N 44°44' E 037°48'0 0.0
2017-Feb-22 05:31N 44°44' E 037°48'0 0.0
2017-Feb-22 04:32N 44°44' E 037°48'0 0.0
2017-Feb-22 03:33N 44°44' E 037°48'0 0.0
2017-Feb-22 02:33N 44°44' E 037°48'0 0.0
2017-Feb-22 01:33N 44°44' E 037°48'0 0.0
2017-Feb-22 00:28N 44°44' E 037°48'0 0.0
2017-Feb-21 23:31N 44°44' E 037°48'0 0.0
2017-Feb-21 22:33N 44°44' E 037°48'0 0.0
2017-Feb-21 21:33N 44°44' E 037°48'0 0.0
2017-Feb-21 20:32N 44°44' E 037°48'0 0.0
2017-Feb-21 19:33N 44°44' E 037°48'0 0.0
2017-Feb-21 18:31N 44°44' E 037°48'0 0.0
2017-Feb-21 17:32N 44°44' E 037°48'0 0.0
2017-Feb-21 16:33N 44°44' E 037°48'0 0.0
2017-Feb-21 15:31N 44°44' E 037°48'0 0.0
2017-Feb-21 14:32N 44°44' E 037°48'0 0.0
2017-Feb-21 13:33N 44°44' E 037°48'0 0.0
2017-Feb-21 12:33N 44°44' E 037°48'5 5.1
2017-Feb-21 11:33N 44°39' E 037°51'2 2.4
2017-Feb-21 10:33N 44°39' E 037°54'0 0.1
2017-Feb-21 09:31N 44°40' E 037°54'0 0.0
2017-Feb-21 08:32N 44°40' E 037°54'0 0.0
2017-Feb-21 07:33N 44°40' E 037°54'1 0.9
2017-Feb-21 06:27N 44°39' E 037°55'1 1.1
2017-Feb-21 05:32N 44°39' E 037°54'0 0.0
2017-Feb-21 04:29N 44°39' E 037°54'0 0.1
2017-Feb-21 03:30N 44°40' E 037°54'0 0.0
2017-Feb-21 02:28N 44°40' E 037°54'0 0.0
2017-Feb-21 01:30N 44°40' E 037°54'0 0.0
2017-Feb-21 00:33N 44°40' E 037°54'0 0.0
2017-Feb-20 23:32N 44°40' E 037°54'0 0.0
2017-Feb-20 22:31N 44°40' E 037°54'0 0.0
2017-Feb-20 21:31N 44°40' E 037°54'0 0.1
2017-Feb-20 20:33N 44°39' E 037°54'0 0.0
2017-Feb-20 19:33N 44°39' E 037°54'0 0.0
2017-Feb-20 18:33N 44°39' E 037°54'0 0.0
2017-Feb-20 17:33N 44°40' E 037°54'0 0.0
2017-Feb-20 16:33N 44°40' E 037°54'0 0.0
2017-Feb-20 15:33N 44°39' E 037°54'0 0.0
2017-Feb-20 14:31N 44°39' E 037°54'0 0.1
2017-Feb-20 13:33N 44°40' E 037°54'0 0.0
2017-Feb-20 12:33N 44°40' E 037°54'0 0.0
2017-Feb-20 11:31N 44°40' E 037°54'0 0.0
2017-Feb-20 10:33N 44°40' E 037°54'0 0.0
2017-Feb-20 09:33N 44°39' E 037°54'0 0.1
2017-Feb-20 08:33N 44°39' E 037°54'0 0.0
2017-Feb-20 07:33N 44°39' E 037°54'0 0.0
2017-Feb-20 06:33N 44°39' E 037°54'0 0.0
2017-Feb-20 05:33N 44°39' E 037°54'0 0.1
2017-Feb-20 04:34N 44°39' E 037°54'0 0.0
2017-Feb-20 03:34N 44°39' E 037°54'0 0.1
2017-Feb-20 02:34N 44°39' E 037°54'0 0.0
2017-Feb-20 01:34N 44°39' E 037°54'0 0.0
2017-Feb-20 00:34N 44°39' E 037°54'0 0.0
2017-Feb-19 23:34N 44°39' E 037°54'4 4.2
2017-Feb-19 22:34N 44°36' E 037°51'3010.0
2017-Feb-19 19:32N 44°07' E 037°40'  
2017-Feb-13 16:16N 44°23' E 037°41'6 8.6
2017-Feb-13 15:34N 44°29' E 037°44'8 8.3
2017-Feb-13 14:33N 44°37' E 037°48'7 6.9
2017-Feb-13 13:34N 44°44' E 037°48'0 0.2
2017-Feb-13 12:29N 44°44' E 037°48'0 0.0
2017-Feb-13 11:30N 44°44' E 037°48'0 0.0
2017-Feb-13 10:27N 44°44' E 037°48'0 0.0
2017-Feb-13 09:33N 44°44' E 037°48'0 0.0
2017-Feb-13 08:28N 44°44' E 037°48'0 0.0
2017-Feb-13 07:27N 44°44' E 037°48'0 0.0
2017-Feb-13 06:31N 44°44' E 037°48'0 0.0
2017-Feb-13 05:33N 44°44' E 037°48'0 0.0
2017-Feb-13 04:32N 44°44' E 037°48'0 0.0
2017-Feb-13 03:31N 44°44' E 037°48'0 0.0
2017-Feb-13 02:31N 44°44' E 037°48'0 0.0
2017-Feb-13 01:31N 44°44' E 037°48'0 0.0
2017-Feb-13 00:32N 44°44' E 037°48'0 0.0
2017-Feb-12 23:32N 44°44' E 037°48'0 0.0
2017-Feb-12 22:33N 44°44' E 037°48'0 0.0
2017-Feb-12 21:32N 44°44' E 037°48'0 0.0
2017-Feb-12 20:31N 44°44' E 037°48'  
Track history (hours):
 
Tides and Currents Weather Stations Pressure Air Temp Water Temp Dewpoint Dewpoint Depression Visibility Wind Speed Wind Dir Waves Ship Positions

Jasper

Last reported at 2017-Feb-22 19:33 UTC. Time now 2017-Feb-22 20:04 UTC.
Position N 44°44' E 037°48'.

Length 94 m; draft 3.8 m.

Type: Ship. MMSI: 271002689.

Date/timePositionNaut miles runAvg speedWind from/ knotsBaromVisibWave heightAir tempDewpointWater temp
2017-Feb-22 19:33N 44°44' E 037°48'0 0.0
2017-Feb-22 18:31N 44°44' E 037°48'0 0.0
2017-Feb-22 17:27N 44°44' E 037°48'0 0.0
2017-Feb-22 16:31N 44°44' E 037°48'0 0.0
2017-Feb-22 15:32N 44°44' E 037°48'0 0.0
2017-Feb-22 14:31N 44°44' E 037°48'0 0.0
2017-Feb-22 13:33N 44°44' E 037°48'0 0.0
2017-Feb-22 12:33N 44°44' E 037°48'0 0.0
2017-Feb-22 11:32N 44°44' E 037°48'0 0.0
2017-Feb-22 10:33N 44°44' E 037°48'0 0.0
2017-Feb-22 09:33N 44°44' E 037°48'0 0.0
2017-Feb-22 08:32N 44°44' E 037°48'0 0.0
2017-Feb-22 07:32N 44°44' E 037°48'0 0.0
2017-Feb-22 06:31N 44°44' E 037°48'0 0.0
2017-Feb-22 05:31N 44°44' E 037°48'0 0.0
2017-Feb-22 04:32N 44°44' E 037°48'0 0.0
2017-Feb-22 03:33N 44°44' E 037°48'0 0.0
2017-Feb-22 02:33N 44°44' E 037°48'0 0.0
2017-Feb-22 01:33N 44°44' E 037°48'0 0.0
2017-Feb-22 00:28N 44°44' E 037°48'0 0.0
2017-Feb-21 23:31N 44°44' E 037°48'0 0.0
2017-Feb-21 22:33N 44°44' E 037°48'0 0.0
2017-Feb-21 21:33N 44°44' E 037°48'0 0.0
2017-Feb-21 20:32N 44°44' E 037°48'0 0.0
2017-Feb-21 19:33N 44°44' E 037°48'0 0.0
2017-Feb-21 18:31N 44°44' E 037°48'0 0.0
2017-Feb-21 17:32N 44°44' E 037°48'0 0.0
2017-Feb-21 16:33N 44°44' E 037°48'0 0.0
2017-Feb-21 15:31N 44°44' E 037°48'0 0.0
2017-Feb-21 14:32N 44°44' E 037°48'0 0.0
2017-Feb-21 13:33N 44°44' E 037°48'0 0.0
2017-Feb-21 12:33N 44°44' E 037°48'5 5.1
2017-Feb-21 11:33N 44°39' E 037°51'2 2.4
2017-Feb-21 10:33N 44°39' E 037°54'0 0.1
2017-Feb-21 09:31N 44°40' E 037°54'0 0.0
2017-Feb-21 08:32N 44°40' E 037°54'0 0.0
2017-Feb-21 07:33N 44°40' E 037°54'1 0.9
2017-Feb-21 06:27N 44°39' E 037°55'1 1.1
2017-Feb-21 05:32N 44°39' E 037°54'0 0.0
2017-Feb-21 04:29N 44°39' E 037°54'0 0.1
2017-Feb-21 03:30N 44°40' E 037°54'0 0.0
2017-Feb-21 02:28N 44°40' E 037°54'0 0.0
2017-Feb-21 01:30N 44°40' E 037°54'0 0.0
2017-Feb-21 00:33N 44°40' E 037°54'0 0.0
2017-Feb-20 23:32N 44°40' E 037°54'0 0.0
2017-Feb-20 22:31N 44°40' E 037°54'0 0.0
2017-Feb-20 21:31N 44°40' E 037°54'0 0.1
2017-Feb-20 20:33N 44°39' E 037°54'0 0.0
2017-Feb-20 19:33N 44°39' E 037°54'0 0.0
2017-Feb-20 18:33N 44°39' E 037°54'0 0.0
2017-Feb-20 17:33N 44°40' E 037°54'0 0.0
2017-Feb-20 16:33N 44°40' E 037°54'0 0.0
2017-Feb-20 15:33N 44°39' E 037°54'0 0.0
2017-Feb-20 14:31N 44°39' E 037°54'0 0.1
2017-Feb-20 13:33N 44°40' E 037°54'0 0.0
2017-Feb-20 12:33N 44°40' E 037°54'0 0.0
2017-Feb-20 11:31N 44°40' E 037°54'0 0.0
2017-Feb-20 10:33N 44°40' E 037°54'0 0.0
2017-Feb-20 09:33N 44°39' E 037°54'0 0.1
2017-Feb-20 08:33N 44°39' E 037°54'0 0.0
2017-Feb-20 07:33N 44°39' E 037°54'0 0.0
2017-Feb-20 06:33N 44°39' E 037°54'0 0.0
2017-Feb-20 05:33N 44°39' E 037°54'0 0.1
2017-Feb-20 04:34N 44°39' E 037°54'0 0.0
2017-Feb-20 03:34N 44°39' E 037°54'0 0.1
2017-Feb-20 02:34N 44°39' E 037°54'0 0.0
2017-Feb-20 01:34N 44°39' E 037°54'0 0.0
2017-Feb-20 00:34N 44°39' E 037°54'0 0.0
2017-Feb-19 23:34N 44°39' E 037°54'4 4.2
2017-Feb-19 22:34N 44°36' E 037°51'3010.0
2017-Feb-19 19:32N 44°07' E 037°40'  
2017-Feb-13 16:16N 44°23' E 037°41'6 8.6
2017-Feb-13 15:34N 44°29' E 037°44'8 8.3
2017-Feb-13 14:33N 44°37' E 037°48'7 6.9
2017-Feb-13 13:34N 44°44' E 037°48'0 0.2
2017-Feb-13 12:29N 44°44' E 037°48'0 0.0
2017-Feb-13 11:30N 44°44' E 037°48'0 0.0
2017-Feb-13 10:27N 44°44' E 037°48'0 0.0
2017-Feb-13 09:33N 44°44' E 037°48'0 0.0
2017-Feb-13 08:28N 44°44' E 037°48'0 0.0
2017-Feb-13 07:27N 44°44' E 037°48'0 0.0
2017-Feb-13 06:31N 44°44' E 037°48'0 0.0
2017-Feb-13 05:33N 44°44' E 037°48'0 0.0
2017-Feb-13 04:32N 44°44' E 037°48'0 0.0
2017-Feb-13 03:31N 44°44' E 037°48'0 0.0
2017-Feb-13 02:31N 44°44' E 037°48'0 0.0
2017-Feb-13 01:31N 44°44' E 037°48'0 0.0
2017-Feb-13 00:32N 44°44' E 037°48'0 0.0
2017-Feb-12 23:32N 44°44' E 037°48'0 0.0
2017-Feb-12 22:33N 44°44' E 037°48'0 0.0
2017-Feb-12 21:32N 44°44' E 037°48'0 0.0
2017-Feb-12 20:31N 44°44' E 037°48'  

Dump ship's entire track history